createdAt,value
2023-05-21T00:04:32.006Z,8.8
2023-05-21T00:06:36.023Z,4.9
2023-05-21T00:10:46.610Z,3.8
2023-05-21T00:12:50.553Z,5.1
2023-05-21T00:14:54.501Z,5.9
2023-05-21T00:16:58.432Z,6.9
2023-05-21T00:21:06.277Z,4
2023-05-21T00:23:10.239Z,4.1
2023-05-21T00:25:16.976Z,6.5
2023-05-21T00:27:20.931Z,4.4
2023-05-21T00:33:32.701Z,5.5
2023-05-21T00:39:47.287Z,5.1
2023-05-21T00:41:51.240Z,4.6
2023-05-21T00:43:55.295Z,5.7
2023-05-21T00:48:03.060Z,4.2
2023-05-21T00:50:06.957Z,5.4
2023-05-21T00:52:10.921Z,5
2023-05-21T00:54:17.668Z,4.6
2023-05-21T00:56:21.604Z,6.8
2023-05-21T00:59:28.893Z,6.4
2023-05-21T01:01:32.840Z,3.7
2023-05-21T01:03:36.763Z,3.7
2023-05-21T01:05:40.683Z,3.8
2023-05-21T01:09:51.355Z,4.6
2023-05-21T01:13:59.195Z,4.5
2023-05-21T01:16:03.156Z,3.7
2023-05-21T01:18:07.132Z,4.2
2023-05-21T01:32:37.496Z,3.5
2023-05-21T01:34:41.315Z,3.4
2023-05-21T01:36:48.073Z,5.5
2023-05-21T01:38:51.999Z,4.3
2023-05-21T01:40:55.920Z,4.9
2023-05-21T01:42:59.940Z,4.7
2023-05-21T01:45:03.779Z,4.3
2023-05-21T01:47:07.733Z,4.6
2023-05-21T01:49:11.635Z,5
2023-05-21T01:51:18.403Z,5.2
2023-05-21T01:55:26.265Z,5.8
2023-05-21T01:56:29.603Z,5
2023-05-21T01:58:33.530Z,7.4
2023-05-21T02:00:37.460Z,5.9
2023-05-21T02:02:41.451Z,5.1
2023-05-21T02:06:52.058Z,5.7
2023-05-21T02:17:11.666Z,5.6
2023-05-21T02:19:18.425Z,4.4
2023-05-21T02:21:22.318Z,3.7
2023-05-21T02:23:26.248Z,4.3
2023-05-21T02:25:30.173Z,4.7
2023-05-21T02:27:34.092Z,4.8
2023-05-21T02:29:38.052Z,4
2023-05-21T02:31:41.918Z,3.8
2023-05-21T02:35:52.616Z,3.7
2023-05-21T02:37:56.537Z,3.3
2023-05-21T02:40:00.442Z,4.5
2023-05-21T02:42:04.380Z,4.5
2023-05-21T02:44:08.267Z,4.4
2023-05-21T02:52:26.772Z,3.9
2023-05-21T02:53:30.167Z,4.2
2023-05-21T02:55:34.225Z,5.2
2023-05-21T02:57:38.004Z,5
2023-05-21T02:59:41.932Z,4
2023-05-21T03:01:48.820Z,4.3
2023-05-21T03:03:52.593Z,4.2
2023-05-21T03:05:56.489Z,4
2023-05-21T03:08:00.443Z,3.4
2023-05-21T03:10:04.379Z,4.4
2023-05-21T03:12:08.258Z,4.6
2023-05-21T03:14:12.214Z,3.2
2023-05-21T03:16:18.925Z,4.8
2023-05-21T03:18:22.842Z,4.4
2023-05-21T03:20:26.770Z,4.2
2023-05-21T03:22:30.697Z,4.2
2023-05-21T03:24:34.595Z,4.5
2023-05-21T03:26:38.552Z,4
2023-05-21T03:28:42.467Z,4.1
2023-05-21T03:30:49.189Z,4.5
2023-05-21T03:34:57.030Z,4.2
2023-05-21T03:37:00.969Z,3.8
2023-05-21T03:39:04.893Z,4
2023-05-21T03:41:08.830Z,4.5
2023-05-21T03:43:12.736Z,3.5
2023-05-21T03:47:23.434Z,3.8
2023-05-21T03:51:57.002Z,3.3
2023-05-21T03:54:00.925Z,4.2
2023-05-21T03:56:04.851Z,3.5
2023-05-21T03:58:11.951Z,4.8
2023-05-21T04:00:15.909Z,4.2
2023-05-21T04:02:19.875Z,4.1
2023-05-21T04:04:23.765Z,4.3
2023-05-21T04:06:27.648Z,4
2023-05-21T04:08:31.572Z,4.2
2023-05-21T04:18:54.021Z,3.9
2023-05-21T04:20:57.893Z,3.7
2023-05-21T04:25:05.747Z,3.9
2023-05-21T04:27:12.499Z,3.6
2023-05-21T04:29:16.399Z,4.4
2023-05-21T04:31:20.403Z,4.8
2023-05-21T04:33:24.253Z,4.2
2023-05-21T04:35:28.179Z,4.7
2023-05-21T04:37:32.112Z,4.6
2023-05-21T04:39:36.043Z,5
2023-05-21T04:41:42.754Z,6
2023-05-21T04:43:46.708Z,3.8
2023-05-21T04:45:50.634Z,4.4
2023-05-21T04:46:54.024Z,4.1
2023-05-21T04:48:57.905Z,4.2
2023-05-21T04:51:01.837Z,4.6
2023-05-21T04:53:05.763Z,4.4
2023-05-21T04:55:12.495Z,4.5
2023-05-21T04:57:16.419Z,3.9
2023-05-21T04:59:20.353Z,4.2
2023-05-21T05:01:24.307Z,3.7
2023-05-21T05:03:28.289Z,4.4
2023-05-21T05:05:32.114Z,4.4
2023-05-21T05:07:36.018Z,4.2
2023-05-21T05:09:42.781Z,4.8
2023-05-21T05:11:46.732Z,4.4
2023-05-21T05:13:50.634Z,4.5
2023-05-21T05:15:54.857Z,4.3
2023-05-21T05:17:58.529Z,4.6
2023-05-21T05:20:02.426Z,4.8
2023-05-21T05:22:06.354Z,3.3
2023-05-21T05:24:13.102Z,4.9
2023-05-21T05:26:17.018Z,4.5
2023-05-21T05:30:24.881Z,4.5
2023-05-21T05:32:30.290Z,4.4
2023-05-21T05:42:52.673Z,4.1
2023-05-21T05:52:14.551Z,4.5
2023-05-21T06:00:30.294Z,4
2023-05-21T06:02:34.266Z,5.2
2023-05-21T06:04:38.114Z,4.3
2023-05-21T06:06:44.871Z,5.4
2023-05-21T06:08:48.775Z,4.5
2023-05-21T06:10:52.712Z,5.3
2023-05-21T06:15:00.647Z,4.3
2023-05-21T06:23:19.106Z,6
2023-05-21T06:25:23.076Z,4.9
2023-05-21T06:27:26.961Z,5.1
2023-05-21T06:29:30.894Z,4.8
2023-05-21T06:31:34.831Z,5.3
2023-05-21T06:35:45.509Z,5.5
2023-05-21T06:37:49.434Z,4.9
2023-05-21T06:39:53.353Z,5.1
2023-05-21T06:40:56.729Z,4.8
2023-05-21T06:45:04.577Z,4.3
2023-05-21T06:47:08.535Z,3.9
2023-05-21T06:49:15.264Z,4.9
2023-05-21T06:53:23.130Z,4.7
2023-05-21T06:57:30.995Z,5.1
2023-05-21T06:59:34.931Z,4.1
2023-05-21T07:01:39.003Z,5
2023-05-21T07:05:49.520Z,4
2023-05-21T07:07:53.451Z,4.2
2023-05-21T07:09:57.362Z,4.5
2023-05-21T07:12:01.369Z,4.1
2023-05-21T07:14:05.247Z,4.5
2023-05-21T07:18:15.937Z,5.5
2023-05-21T07:20:19.865Z,4.5
2023-05-21T07:22:24.681Z,5.2
2023-05-21T07:30:39.502Z,4.2
2023-05-21T07:32:46.301Z,5.1
2023-05-21T07:36:54.125Z,3.9
2023-05-21T07:43:29.662Z,4.2
2023-05-21T07:45:36.667Z,4.8
2023-05-21T07:47:40.434Z,5.1
2023-05-21T07:49:44.304Z,4.7
2023-05-21T07:51:48.244Z,5.1
2023-05-21T07:55:56.108Z,4.2
2023-05-21T07:58:00.061Z,4.5
2023-05-21T08:02:10.742Z,4.9
2023-05-21T08:12:30.353Z,4
2023-05-21T08:24:56.716Z,3.4
2023-05-21T08:27:00.713Z,4.7
2023-05-21T08:29:07.413Z,3.7
2023-05-21T08:33:15.252Z,3.4
2023-05-21T08:34:18.682Z,3.4
2023-05-21T08:36:22.525Z,3.4
2023-05-21T08:38:28.667Z,3.7
2023-05-21T08:40:30.356Z,4.2
2023-05-21T08:42:37.672Z,4.5
2023-05-21T08:44:40.989Z,4.4
2023-05-21T08:55:00.526Z,4.8
2023-05-21T08:57:07.272Z,4.8
2023-05-21T08:59:11.167Z,4.9
2023-05-21T09:03:19.035Z,3.9
2023-05-21T09:07:26.714Z,5.4
2023-05-21T09:09:30.599Z,4.6
2023-05-21T09:11:37.337Z,5.9
2023-05-21T09:15:45.063Z,4.8
2023-05-21T09:17:48.953Z,5.4
2023-05-21T09:19:52.786Z,5.4
2023-05-21T09:21:56.679Z,4.4
2023-05-21T09:26:07.285Z,4.4
2023-05-21T09:30:15.032Z,4.1
2023-05-21T09:31:18.402Z,4.4
2023-05-21T09:33:22.219Z,3.6
2023-05-21T09:41:40.527Z,4
2023-05-21T09:43:44.390Z,4.6
2023-05-21T09:45:48.242Z,4.4
2023-05-21T10:00:18.169Z,4.8
2023-05-21T10:02:22.111Z,4.6
2023-05-21T10:06:29.798Z,4
2023-05-21T10:08:36.499Z,4.6
2023-05-21T10:12:44.245Z,4.7
2023-05-21T10:14:48.137Z,4.9
2023-05-21T10:16:52.075Z,5
2023-05-21T10:18:55.914Z,5.1
2023-05-21T10:20:59.742Z,4
2023-05-21T10:23:06.519Z,4.9
2023-05-21T10:25:10.364Z,3.5
2023-05-21T10:27:14.230Z,4.9
2023-05-21T10:28:17.609Z,4.4
2023-05-21T10:32:25.457Z,5
2023-05-21T10:34:29.251Z,5.5
2023-05-21T10:36:35.965Z,5.2
2023-05-21T10:38:39.856Z,5.7
2023-05-21T10:40:43.731Z,5.5
2023-05-21T10:42:47.600Z,5.4
2023-05-21T10:44:51.488Z,5.8
2023-05-21T10:46:55.411Z,5.7
2023-05-21T10:51:05.952Z,4.8
2023-05-21T10:53:10.785Z,5.4
2023-05-21T10:55:13.687Z,5.3
2023-05-21T10:57:17.579Z,4.9
2023-05-21T11:01:25.332Z,5.6
2023-05-21T11:05:35.866Z,5.4
2023-05-21T11:07:39.714Z,5.7
2023-05-21T11:09:43.592Z,4.9
2023-05-21T11:15:55.165Z,5.7
2023-05-21T11:20:05.750Z,5.2
2023-05-21T11:22:09.595Z,6
2023-05-21T11:28:48.369Z,5.7
2023-05-21T11:30:52.171Z,6.2
2023-05-21T11:32:58.939Z,3.9
2023-05-21T11:37:06.565Z,6.1
2023-05-21T11:41:14.233Z,6.6
2023-05-21T11:43:18.070Z,7.4
2023-05-21T11:45:21.904Z,6.6
2023-05-21T11:47:28.663Z,6.5
2023-05-21T11:49:32.441Z,6.1
2023-05-21T11:51:36.263Z,6.9
2023-05-21T11:53:40.793Z,5.4
2023-05-21T11:55:43.940Z,6.5
2023-05-21T11:57:47.746Z,6.7
2023-05-21T11:59:51.545Z,6.2
2023-05-21T12:01:58.252Z,6.3
2023-05-21T12:04:02.097Z,5.6
2023-05-21T12:06:05.972Z,6
2023-05-21T12:08:09.669Z,6.9
2023-05-21T12:10:13.511Z,7.4
2023-05-21T12:12:17.331Z,4.8
2023-05-21T12:20:35.716Z,6.8
2023-05-21T12:21:38.795Z,7.1
2023-05-21T12:23:42.599Z,7.7
2023-05-21T12:25:46.409Z,6.6
2023-05-21T12:27:50.238Z,6.9
2023-05-21T12:29:56.897Z,6.7
2023-05-21T12:32:00.749Z,7.8
2023-05-21T12:34:04.534Z,7.1
2023-05-21T12:36:08.332Z,7.1
2023-05-21T12:38:12.168Z,6.9
2023-05-21T12:40:15.945Z,6.9
2023-05-21T12:50:38.060Z,5.6
2023-05-21T12:52:41.692Z,7.4
2023-05-21T12:54:45.485Z,6.5
2023-05-21T12:56:49.319Z,6.4
2023-05-21T12:58:56.015Z,7.4
2023-05-21T13:00:59.846Z,6.4
2023-05-21T13:05:07.435Z,7.3
2023-05-21T13:07:11.270Z,7.7
2023-05-21T13:09:15.072Z,8.2
2023-05-21T13:17:33.277Z,6.8
2023-05-21T13:18:36.561Z,9.8
2023-05-21T13:22:44.254Z,7.8
2023-05-21T13:24:48.116Z,8.2
2023-05-21T13:37:13.935Z,7.9
2023-05-21T13:45:32.204Z,8.2
2023-05-21T13:53:47.506Z,9.2
2023-05-21T13:57:58.558Z,8.9
2023-05-21T14:02:06.287Z,8.8
2023-05-21T14:04:10.073Z,10.1
2023-05-21T14:08:17.705Z,8.9
2023-05-21T14:10:24.417Z,9.7
2023-05-21T14:12:28.224Z,9.6
2023-05-21T14:14:32.056Z,9.6
2023-05-21T14:30:05.011Z,7.7
2023-05-21T14:32:08.922Z,7.1
2023-05-21T14:34:12.665Z,9.8
2023-05-21T14:36:16.493Z,8.7
2023-05-21T14:38:23.158Z,8.9
2023-05-21T14:40:26.982Z,9.5
2023-05-21T14:42:30.930Z,8.6
2023-05-21T14:46:38.489Z,8.7
2023-05-21T14:57:00.464Z,9.5
2023-05-21T14:59:04.302Z,9.1
2023-05-21T15:13:59.648Z,9
2023-05-21T15:16:03.521Z,7.6
2023-05-21T15:18:07.317Z,9
2023-05-21T15:20:14.007Z,14.3
2023-05-21T15:22:17.825Z,11.1
2023-05-21T15:26:25.500Z,8.4
2023-05-21T15:30:33.180Z,9.4
2023-05-21T15:34:43.760Z,8.1
2023-05-21T15:36:47.570Z,6.8
2023-05-21T15:42:59.091Z,10.6
2023-05-21T15:47:06.812Z,10.5
2023-05-21T15:55:24.975Z,9.5
2023-05-21T15:59:32.652Z,10.3
2023-05-21T16:05:47.052Z,7.4
2023-05-21T16:07:50.906Z,21
2023-05-21T16:08:54.254Z,11.5
2023-05-21T16:10:58.113Z,10.3
2023-05-21T16:13:01.979Z,9.8
2023-05-21T16:15:05.824Z,9.7
2023-05-21T16:17:12.655Z,9.6
2023-05-21T16:21:20.234Z,10
2023-05-21T16:23:24.093Z,15.1
2023-05-21T16:25:27.958Z,10.3
2023-05-21T16:27:31.794Z,10
2023-05-21T16:29:35.655Z,9.8
2023-05-21T16:31:42.384Z,10
2023-05-21T16:33:46.247Z,9.6
2023-05-21T16:35:50.084Z,9.5
2023-05-21T16:37:53.940Z,10.7
2023-05-21T16:39:57.793Z,10.7
2023-05-21T16:42:01.665Z,10.4
2023-05-21T16:44:05.502Z,9.9
2023-05-21T16:46:12.322Z,10.4
2023-05-21T16:52:23.828Z,10.2
2023-05-21T17:02:46.081Z,9.6
2023-05-21T17:05:53.156Z,8.5
2023-05-21T17:07:57.007Z,9.6
2023-05-21T17:12:04.758Z,9.1
2023-05-21T17:14:13.473Z,9.1
2023-05-21T17:16:15.405Z,10.5
2023-05-21T17:18:19.155Z,9.6
2023-05-21T17:20:22.989Z,10
2023-05-21T17:22:26.853Z,10.9
2023-05-21T17:24:30.727Z,11.1
2023-05-21T17:26:36.075Z,10.1
2023-05-21T17:30:48.736Z,9.8
2023-05-21T17:32:50.484Z,9.5
2023-05-21T17:34:54.308Z,10.5
2023-05-21T17:39:02.058Z,9.2
2023-05-21T17:41:05.895Z,9.9
2023-05-21T17:47:20.342Z,11.4
2023-05-21T17:59:46.388Z,11.1
2023-05-21T18:01:50.270Z,10.4
2023-05-21T18:07:01.374Z,10
2023-05-21T18:09:05.237Z,12.3
2023-05-21T18:29:49.729Z,9.1
2023-05-21T18:38:05.228Z,11.2
2023-05-21T18:42:15.814Z,10.5
2023-05-21T18:44:19.760Z,10.7
2023-05-21T18:46:23.694Z,9.7
2023-05-21T18:48:27.452Z,11.3
2023-05-21T18:50:31.349Z,11.1
2023-05-21T18:52:35.229Z,10.4
2023-05-21T18:54:42.086Z,11
2023-05-21T18:56:45.855Z,9.4
2023-05-21T18:58:49.714Z,12.9
2023-05-21T19:03:23.194Z,11.5
2023-05-21T19:05:27.092Z,12.9
2023-05-21T19:07:33.842Z,12.4
2023-05-21T19:09:37.713Z,18.3
2023-05-21T19:11:41.631Z,13.2
2023-05-21T19:13:45.509Z,20.4
2023-05-21T19:15:49.417Z,13.5
2023-05-21T19:17:53.338Z,15.1
2023-05-21T19:19:57.199Z,18.3
2023-05-21T19:36:48.355Z,27
2023-05-21T19:38:37.941Z,13.6
2023-05-21T19:40:41.824Z,14.3
2023-05-21T19:42:45.743Z,12.9
2023-05-21T19:44:49.644Z,13.8
2023-05-21T19:46:53.556Z,12
2023-05-21T19:48:57.464Z,13.5
2023-05-21T19:51:04.210Z,13.9
2023-05-21T19:53:08.115Z,15.8
2023-05-21T19:55:12.050Z,17
2023-05-21T19:56:15.415Z,13.4
2023-05-21T19:58:19.309Z,15.2
2023-05-21T20:00:23.240Z,14.2
2023-05-21T20:02:27.183Z,16.4
2023-05-21T20:04:33.890Z,25.9
2023-05-21T20:12:49.529Z,13.4
2023-05-21T20:19:04.235Z,17.5
2023-05-21T20:21:08.028Z,18.9
2023-05-21T20:23:11.909Z,24
2023-05-21T20:25:15.823Z,16.8
2023-05-21T20:27:19.739Z,15.8
2023-05-21T20:29:23.619Z,14.5
2023-05-21T20:31:27.585Z,13.9
2023-05-21T20:33:34.291Z,15.1
2023-05-21T20:35:38.187Z,30.3
2023-05-21T20:37:42.102Z,29.2
2023-05-21T20:43:53.852Z,11.8
2023-05-21T20:50:08.417Z,23.3
2023-05-21T20:55:19.626Z,14.8
2023-05-21T20:57:23.547Z,12.5
2023-05-21T21:03:38.326Z,12.8
2023-05-21T21:05:42.033Z,14.1
2023-05-21T21:07:45.988Z,12.6
2023-05-21T21:09:49.885Z,14.8
2023-05-21T21:16:04.467Z,17.4
2023-05-21T21:18:08.468Z,17.7
2023-05-21T21:20:12.292Z,13.2
2023-05-21T21:22:16.213Z,12.9
2023-05-21T21:26:24.066Z,14.8
2023-05-21T21:28:27.948Z,15.9
2023-05-21T21:30:34.720Z,13.5
2023-05-21T21:32:38.653Z,20.6
2023-05-21T21:34:42.553Z,13.1
2023-05-21T21:36:46.478Z,13.9
2023-05-21T21:38:50.378Z,14.9
2023-05-21T21:40:54.304Z,13.3
2023-05-21T21:50:16.217Z,15
2023-05-21T21:52:20.132Z,15.3
2023-05-21T21:54:24.070Z,14.4
2023-05-21T21:56:27.995Z,14.3
2023-05-21T21:58:34.744Z,16.7
2023-05-21T22:00:38.776Z,13.9
2023-05-21T22:02:42.623Z,14
2023-05-21T22:04:46.582Z,16
2023-05-21T22:08:54.565Z,14.6
2023-05-21T22:10:58.269Z,15.8
2023-05-21T22:13:05.043Z,16.1
2023-05-21T22:15:08.959Z,12.8
2023-05-21T22:17:12.926Z,13.4
2023-05-21T22:19:16.870Z,12.3
2023-05-21T22:21:20.734Z,17.2
2023-05-21T22:23:24.630Z,14.1
2023-05-21T22:25:28.559Z,15.4
2023-05-21T22:29:39.265Z,16.9
2023-05-21T22:35:51.070Z,17.1
2023-05-21T22:37:54.946Z,17.3
2023-05-21T22:39:58.877Z,15.8
2023-05-21T22:42:05.666Z,19.1
2023-05-21T22:46:13.502Z,18.8
2023-05-21T22:48:43.098Z,20.9
2023-05-21T22:50:47.001Z,19.6
2023-05-21T22:52:50.937Z,20.7
2023-05-21T22:54:57.850Z,19.2
2023-05-21T22:57:01.607Z,18.5
2023-05-21T22:59:05.522Z,21.5
2023-05-21T23:01:09.478Z,20.2
2023-05-21T23:03:13.468Z,20.5
2023-05-21T23:05:17.340Z,20.1
2023-05-21T23:07:21.234Z,17.1
2023-05-21T23:13:35.833Z,21.6
2023-05-21T23:15:39.736Z,21.3
2023-05-21T23:17:43.700Z,20.2
2023-05-21T23:19:47.604Z,22.7
2023-05-21T23:21:51.524Z,23.4
2023-05-21T23:23:59.750Z,23.1
2023-05-21T23:26:03.668Z,22.7
2023-05-21T23:30:11.530Z,23.5
2023-05-21T23:32:15.447Z,25.5
2023-05-21T23:34:19.355Z,23
2023-05-21T23:36:23.292Z,23.9
2023-05-21T23:38:30.060Z,23.6
2023-05-21T23:40:33.953Z,22
2023-05-21T23:42:37.913Z,22.8
2023-05-21T23:43:41.282Z,22.6
2023-05-21T23:45:45.212Z,22.7
2023-05-21T23:47:49.137Z,22.8
2023-05-21T23:49:53.058Z,23.8
2023-05-21T23:51:59.785Z,25
2023-05-21T23:54:03.736Z,23.6
2023-05-21T23:58:11.586Z,24.2
